sensor_id;sensor_type;location;lat;lon;timestamp;P1;durP1;ratioP1;P2;durP2;ratioP2
12762;SDS011;6445;52.490;13.378;2023-06-14T00:01:00;4.15;;;2.75;;
12762;SDS011;6445;52.490;13.378;2023-06-14T00:03:27;4.93;;;2.72;;
12762;SDS011;6445;52.490;13.378;2023-06-14T00:05:53;3.78;;;3.28;;
12762;SDS011;6445;52.490;13.378;2023-06-14T00:08:18;4.80;;;3.58;;
12762;SDS011;6445;52.490;13.378;2023-06-14T00:10:43;4.20;;;3.15;;
12762;SDS011;6445;52.490;13.378;2023-06-14T00:13:09;6.25;;;3.75;;
12762;SDS011;6445;52.490;13.378;2023-06-14T00:15:35;5.03;;;3.28;;
12762;SDS011;6445;52.490;13.378;2023-06-14T00:18:00;4.07;;;3.03;;
12762;SDS011;6445;52.490;13.378;2023-06-14T00:20:26;4.75;;;3.10;;
12762;SDS011;6445;52.490;13.378;2023-06-14T00:22:53;4.97;;;3.13;;
12762;SDS011;6445;52.490;13.378;2023-06-14T00:25:20;4.10;;;3.15;;
12762;SDS011;6445;52.490;13.378;2023-06-14T00:27:45;4.95;;;3.20;;
12762;SDS011;6445;52.490;13.378;2023-06-14T00:30:11;4.55;;;3.00;;
12762;SDS011;6445;52.490;13.378;2023-06-14T00:32:36;3.55;;;3.15;;
12762;SDS011;6445;52.490;13.378;2023-06-14T00:35:02;4.97;;;3.35;;
12762;SDS011;6445;52.490;13.378;2023-06-14T00:37:27;5.20;;;3.20;;
12762;SDS011;6445;52.490;13.378;2023-06-14T00:39:52;8.90;;;3.42;;
12762;SDS011;6445;52.490;13.378;2023-06-14T00:42:24;4.70;;;3.15;;
12762;SDS011;6445;52.490;13.378;2023-06-14T00:44:50;5.22;;;3.55;;
12762;SDS011;6445;52.490;13.378;2023-06-14T00:47:15;3.45;;;3.15;;
12762;SDS011;6445;52.490;13.378;2023-06-14T00:49:41;8.13;;;3.70;;
12762;SDS011;6445;52.490;13.378;2023-06-14T00:52:06;5.50;;;3.53;;
12762;SDS011;6445;52.490;13.378;2023-06-14T00:54:32;4.45;;;3.35;;
12762;SDS011;6445;52.490;13.378;2023-06-14T00:56:57;5.28;;;4.00;;
12762;SDS011;6445;52.490;13.378;2023-06-14T00:59:22;5.95;;;3.67;;
12762;SDS011;6445;52.490;13.378;2023-06-14T01:01:48;3.72;;;3.40;;
12762;SDS011;6445;52.490;13.378;2023-06-14T01:04:13;4.07;;;3.25;;
12762;SDS011;6445;52.490;13.378;2023-06-14T01:06:41;3.90;;;3.60;;
12762;SDS011;6445;52.490;13.378;2023-06-14T01:11:50;4.35;;;3.50;;
12762;SDS011;6445;52.490;13.378;2023-06-14T01:14:24;6.25;;;3.88;;
12762;SDS011;6445;52.490;13.378;2023-06-14T01:16:50;8.10;;;4.22;;
12762;SDS011;6445;52.490;13.378;2023-06-14T01:19:18;6.45;;;4.43;;
12762;SDS011;6445;52.490;13.378;2023-06-14T01:21:47;7.45;;;4.05;;
12762;SDS011;6445;52.490;13.378;2023-06-14T01:24:15;5.55;;;4.63;;
12762;SDS011;6445;52.490;13.378;2023-06-14T01:26:41;6.60;;;4.18;;
12762;SDS011;6445;52.490;13.378;2023-06-14T01:29:10;8.93;;;4.38;;
12762;SDS011;6445;52.490;13.378;2023-06-14T01:31:36;5.15;;;4.05;;
12762;SDS011;6445;52.490;13.378;2023-06-14T01:34:06;8.40;;;4.68;;
12762;SDS011;6445;52.490;13.378;2023-06-14T01:36:32;5.00;;;4.22;;
12762;SDS011;6445;52.490;13.378;2023-06-14T01:38:58;7.68;;;4.32;;
12762;SDS011;6445;52.490;13.378;2023-06-14T01:41:24;6.15;;;4.70;;
12762;SDS011;6445;52.490;13.378;2023-06-14T01:43:51;4.93;;;3.92;;
12762;SDS011;6445;52.490;13.378;2023-06-14T01:46:17;4.75;;;4.13;;
12762;SDS011;6445;52.490;13.378;2023-06-14T01:48:44;7.25;;;4.25;;
12762;SDS011;6445;52.490;13.378;2023-06-14T01:51:09;4.90;;;4.40;;
12762;SDS011;6445;52.490;13.378;2023-06-14T01:53:34;6.28;;;4.28;;
12762;SDS011;6445;52.490;13.378;2023-06-14T01:56:01;4.60;;;4.20;;
12762;SDS011;6445;52.490;13.378;2023-06-14T01:58:26;6.40;;;4.93;;
12762;SDS011;6445;52.490;13.378;2023-06-14T02:00:51;5.93;;;5.00;;
12762;SDS011;6445;52.490;13.378;2023-06-14T02:03:20;5.13;;;4.35;;
12762;SDS011;6445;52.490;13.378;2023-06-14T02:05:45;7.95;;;4.80;;
12762;SDS011;6445;52.490;13.378;2023-06-14T02:08:10;9.25;;;5.07;;
12762;SDS011;6445;52.490;13.378;2023-06-14T02:10:35;5.22;;;4.68;;
12762;SDS011;6445;52.490;13.378;2023-06-14T02:13:01;6.10;;;4.68;;
12762;SDS011;6445;52.490;13.378;2023-06-14T02:15:26;6.13;;;5.53;;
12762;SDS011;6445;52.490;13.378;2023-06-14T02:17:58;7.28;;;5.22;;
12762;SDS011;6445;52.490;13.378;2023-06-14T02:20:25;5.38;;;4.55;;
12762;SDS011;6445;52.490;13.378;2023-06-14T02:22:50;6.82;;;4.80;;
12762;SDS011;6445;52.490;13.378;2023-06-14T02:25:15;5.40;;;4.88;;
12762;SDS011;6445;52.490;13.378;2023-06-14T02:27:40;6.72;;;5.70;;
12762;SDS011;6445;52.490;13.378;2023-06-14T02:30:06;5.57;;;4.90;;
12762;SDS011;6445;52.490;13.378;2023-06-14T02:32:32;8.85;;;5.25;;
12762;SDS011;6445;52.490;13.378;2023-06-14T02:34:59;5.55;;;5.00;;
12762;SDS011;6445;52.490;13.378;2023-06-14T02:37:24;10.27;;;5.07;;
12762;SDS011;6445;52.490;13.378;2023-06-14T02:39:49;6.88;;;5.28;;
12762;SDS011;6445;52.490;13.378;2023-06-14T02:42:14;8.82;;;5.93;;
12762;SDS011;6445;52.490;13.378;2023-06-14T02:44:40;7.95;;;5.32;;
12762;SDS011;6445;52.490;13.378;2023-06-14T02:47:05;10.38;;;4.82;;
12762;SDS011;6445;52.490;13.378;2023-06-14T02:49:30;9.05;;;5.25;;
12762;SDS011;6445;52.490;13.378;2023-06-14T02:51:56;5.85;;;4.97;;
12762;SDS011;6445;52.490;13.378;2023-06-14T02:54:21;8.43;;;5.55;;
12762;SDS011;6445;52.490;13.378;2023-06-14T02:56:46;6.65;;;5.07;;
12762;SDS011;6445;52.490;13.378;2023-06-14T02:59:12;7.63;;;5.22;;
12762;SDS011;6445;52.490;13.378;2023-06-14T03:01:38;6.18;;;5.18;;
12762;SDS011;6445;52.490;13.378;2023-06-14T03:04:05;8.85;;;5.82;;
12762;SDS011;6445;52.490;13.378;2023-06-14T03:06:31;7.40;;;5.90;;
12762;SDS011;6445;52.490;13.378;2023-06-14T03:08:57;7.60;;;5.78;;
12762;SDS011;6445;52.490;13.378;2023-06-14T03:11:26;7.07;;;5.53;;
12762;SDS011;6445;52.490;13.378;2023-06-14T03:13:52;7.72;;;5.80;;
12762;SDS011;6445;52.490;13.378;2023-06-14T03:16:17;8.25;;;5.43;;
12762;SDS011;6445;52.490;13.378;2023-06-14T03:18:46;7.80;;;5.85;;
12762;SDS011;6445;52.490;13.378;2023-06-14T03:21:12;7.78;;;5.82;;
12762;SDS011;6445;52.490;13.378;2023-06-14T03:23:37;8.48;;;5.97;;
12762;SDS011;6445;52.490;13.378;2023-06-14T03:26:02;7.00;;;5.88;;
12762;SDS011;6445;52.490;13.378;2023-06-14T03:28:27;6.50;;;5.85;;
12762;SDS011;6445;52.490;13.378;2023-06-14T03:30:53;8.68;;;5.72;;
12762;SDS011;6445;52.490;13.378;2023-06-14T03:33:18;6.80;;;5.45;;
12762;SDS011;6445;52.490;13.378;2023-06-14T03:35:44;14.75;;;6.30;;
12762;SDS011;6445;52.490;13.378;2023-06-14T03:38:09;12.25;;;5.95;;
12762;SDS011;6445;52.490;13.378;2023-06-14T03:40:35;11.80;;;6.50;;
12762;SDS011;6445;52.490;13.378;2023-06-14T03:43:00;7.75;;;6.20;;
12762;SDS011;6445;52.490;13.378;2023-06-14T03:45:25;9.43;;;5.70;;
12762;SDS011;6445;52.490;13.378;2023-06-14T03:47:50;12.57;;;6.50;;
12762;SDS011;6445;52.490;13.378;2023-06-14T03:50:17;8.35;;;6.07;;
12762;SDS011;6445;52.490;13.378;2023-06-14T03:52:43;8.85;;;5.88;;
12762;SDS011;6445;52.490;13.378;2023-06-14T03:55:08;7.28;;;5.30;;
12762;SDS011;6445;52.490;13.378;2023-06-14T03:57:34;8.93;;;6.63;;
12762;SDS011;6445;52.490;13.378;2023-06-14T03:59:59;8.38;;;5.50;;
12762;SDS011;6445;52.490;13.378;2023-06-14T04:02:24;8.55;;;6.43;;
12762;SDS011;6445;52.490;13.378;2023-06-14T04:04:50;8.10;;;5.95;;
12762;SDS011;6445;52.490;13.378;2023-06-14T04:07:16;10.18;;;6.35;;
12762;SDS011;6445;52.490;13.378;2023-06-14T04:09:44;7.82;;;5.65;;
12762;SDS011;6445;52.490;13.378;2023-06-14T04:12:09;7.78;;;6.30;;
12762;SDS011;6445;52.490;13.378;2023-06-14T04:14:36;8.57;;;6.05;;
12762;SDS011;6445;52.490;13.378;2023-06-14T04:17:01;10.55;;;6.30;;
12762;SDS011;6445;52.490;13.378;2023-06-14T04:19:27;6.85;;;6.15;;
12762;SDS011;6445;52.490;13.378;2023-06-14T04:21:52;8.05;;;6.25;;
12762;SDS011;6445;52.490;13.378;2023-06-14T04:24:17;6.63;;;6.03;;
12762;SDS011;6445;52.490;13.378;2023-06-14T04:26:43;7.70;;;6.30;;
12762;SDS011;6445;52.490;13.378;2023-06-14T04:29:13;10.02;;;6.88;;
12762;SDS011;6445;52.490;13.378;2023-06-14T04:31:45;6.68;;;5.88;;
12762;SDS011;6445;52.490;13.378;2023-06-14T04:34:12;10.98;;;5.97;;
12762;SDS011;6445;52.490;13.378;2023-06-14T04:36:43;9.35;;;6.47;;
12762;SDS011;6445;52.490;13.378;2023-06-14T04:39:14;7.43;;;6.55;;
12762;SDS011;6445;52.490;13.378;2023-06-14T04:41:45;7.72;;;5.95;;
12762;SDS011;6445;52.490;13.378;2023-06-14T04:44:11;7.85;;;6.10;;
12762;SDS011;6445;52.490;13.378;2023-06-14T04:46:37;8.27;;;6.80;;
12762;SDS011;6445;52.490;13.378;2023-06-14T04:49:10;9.68;;;6.70;;
12762;SDS011;6445;52.490;13.378;2023-06-14T04:51:40;10.18;;;7.07;;
12762;SDS011;6445;52.490;13.378;2023-06-14T04:54:06;7.90;;;6.78;;
12762;SDS011;6445;52.490;13.378;2023-06-14T04:56:34;12.13;;;8.55;;
12762;SDS011;6445;52.490;13.378;2023-06-14T04:59:02;10.70;;;6.38;;
12762;SDS011;6445;52.490;13.378;2023-06-14T05:01:29;6.78;;;5.88;;
12762;SDS011;6445;52.490;13.378;2023-06-14T05:03:54;8.50;;;6.32;;
12762;SDS011;6445;52.490;13.378;2023-06-14T05:06:20;9.80;;;6.55;;
12762;SDS011;6445;52.490;13.378;2023-06-14T05:08:46;9.63;;;6.88;;
12762;SDS011;6445;52.490;13.378;2023-06-14T05:11:11;12.45;;;6.80;;
12762;SDS011;6445;52.490;13.378;2023-06-14T05:13:36;10.82;;;6.45;;
12762;SDS011;6445;52.490;13.378;2023-06-14T05:16:02;8.07;;;6.55;;
12762;SDS011;6445;52.490;13.378;2023-06-14T05:18:27;11.40;;;6.60;;
12762;SDS011;6445;52.490;13.378;2023-06-14T05:20:53;13.55;;;7.28;;
12762;SDS011;6445;52.490;13.378;2023-06-14T05:23:18;17.27;;;8.27;;
12762;SDS011;6445;52.490;13.378;2023-06-14T05:25:44;16.17;;;6.93;;
12762;SDS011;6445;52.490;13.378;2023-06-14T05:28:10;10.75;;;6.60;;
12762;SDS011;6445;52.490;13.378;2023-06-14T05:30:36;10.27;;;6.78;;
12762;SDS011;6445;52.490;13.378;2023-06-14T05:33:02;9.60;;;7.53;;
12762;SDS011;6445;52.490;13.378;2023-06-14T05:35:28;10.05;;;6.18;;
12762;SDS011;6445;52.490;13.378;2023-06-14T05:37:53;12.68;;;6.25;;
12762;SDS011;6445;52.490;13.378;2023-06-14T05:40:19;9.70;;;6.68;;
12762;SDS011;6445;52.490;13.378;2023-06-14T05:42:44;9.65;;;6.78;;
12762;SDS011;6445;52.490;13.378;2023-06-14T05:45:09;10.38;;;6.35;;
12762;SDS011;6445;52.490;13.378;2023-06-14T05:47:35;11.98;;;6.65;;
12762;SDS011;6445;52.490;13.378;2023-06-14T05:50:00;10.75;;;6.68;;
12762;SDS011;6445;52.490;13.378;2023-06-14T05:52:25;10.00;;;6.18;;
12762;SDS011;6445;52.490;13.378;2023-06-14T05:54:51;6.82;;;6.10;;
12762;SDS011;6445;52.490;13.378;2023-06-14T05:57:16;13.63;;;6.85;;
12762;SDS011;6445;52.490;13.378;2023-06-14T05:59:41;10.15;;;5.95;;
12762;SDS011;6445;52.490;13.378;2023-06-14T06:02:07;10.23;;;7.10;;
12762;SDS011;6445;52.490;13.378;2023-06-14T06:04:32;10.68;;;6.68;;
12762;SDS011;6445;52.490;13.378;2023-06-14T06:06:57;15.05;;;6.53;;
12762;SDS011;6445;52.490;13.378;2023-06-14T06:09:22;14.75;;;6.93;;
12762;SDS011;6445;52.490;13.378;2023-06-14T06:11:48;9.90;;;7.30;;
12762;SDS011;6445;52.490;13.378;2023-06-14T06:14:13;19.90;;;7.70;;
12762;SDS011;6445;52.490;13.378;2023-06-14T06:16:38;9.95;;;6.78;;
12762;SDS011;6445;52.490;13.378;2023-06-14T06:19:03;13.93;;;7.13;;
12762;SDS011;6445;52.490;13.378;2023-06-14T06:21:29;16.13;;;7.30;;
12762;SDS011;6445;52.490;13.378;2023-06-14T06:23:54;28.40;;;8.40;;
12762;SDS011;6445;52.490;13.378;2023-06-14T06:26:21;16.90;;;6.63;;
12762;SDS011;6445;52.490;13.378;2023-06-14T06:28:47;11.60;;;7.10;;
12762;SDS011;6445;52.490;13.378;2023-06-14T06:31:12;10.20;;;6.60;;
12762;SDS011;6445;52.490;13.378;2023-06-14T06:33:37;11.15;;;7.00;;
12762;SDS011;6445;52.490;13.378;2023-06-14T06:36:04;9.40;;;6.40;;
12762;SDS011;6445;52.490;13.378;2023-06-14T06:38:30;10.70;;;6.57;;
12762;SDS011;6445;52.490;13.378;2023-06-14T06:40:55;12.25;;;6.85;;
12762;SDS011;6445;52.490;13.378;2023-06-14T06:43:21;9.30;;;6.90;;
12762;SDS011;6445;52.490;13.378;2023-06-14T06:45:47;10.95;;;6.60;;
12762;SDS011;6445;52.490;13.378;2023-06-14T06:48:12;7.75;;;6.15;;
12762;SDS011;6445;52.490;13.378;2023-06-14T06:50:37;7.53;;;6.07;;
12762;SDS011;6445;52.490;13.378;2023-06-14T06:53:03;11.63;;;6.28;;
12762;SDS011;6445;52.490;13.378;2023-06-14T06:55:28;11.52;;;6.05;;
12762;SDS011;6445;52.490;13.378;2023-06-14T06:57:54;10.00;;;5.75;;
12762;SDS011;6445;52.490;13.378;2023-06-14T07:00:19;10.07;;;6.00;;
12762;SDS011;6445;52.490;13.378;2023-06-14T07:02:45;7.35;;;6.30;;
12762;SDS011;6445;52.490;13.378;2023-06-14T07:05:10;8.57;;;5.55;;
12762;SDS011;6445;52.490;13.378;2023-06-14T07:07:36;10.50;;;6.72;;
12762;SDS011;6445;52.490;13.378;2023-06-14T07:10:01;12.00;;;6.57;;
12762;SDS011;6445;52.490;13.378;2023-06-14T07:12:29;10.07;;;6.20;;
12762;SDS011;6445;52.490;13.378;2023-06-14T07:14:55;12.65;;;5.88;;
12762;SDS011;6445;52.490;13.378;2023-06-14T07:17:20;11.63;;;6.43;;
12762;SDS011;6445;52.490;13.378;2023-06-14T07:19:46;17.27;;;6.70;;
12762;SDS011;6445;52.490;13.378;2023-06-14T07:22:11;7.57;;;5.97;;
12762;SDS011;6445;52.490;13.378;2023-06-14T07:24:36;9.18;;;5.75;;
12762;SDS011;6445;52.490;13.378;2023-06-14T07:27:02;9.98;;;5.75;;
12762;SDS011;6445;52.490;13.378;2023-06-14T07:29:29;9.02;;;5.70;;
12762;SDS011;6445;52.490;13.378;2023-06-14T07:31:54;7.00;;;5.35;;
12762;SDS011;6445;52.490;13.378;2023-06-14T07:34:19;10.70;;;6.10;;
12762;SDS011;6445;52.490;13.378;2023-06-14T07:36:45;8.25;;;6.28;;
12762;SDS011;6445;52.490;13.378;2023-06-14T07:39:11;10.80;;;5.93;;
12762;SDS011;6445;52.490;13.378;2023-06-14T07:41:36;9.75;;;5.43;;
12762;SDS011;6445;52.490;13.378;2023-06-14T07:44:01;13.05;;;5.47;;
12762;SDS011;6445;52.490;13.378;2023-06-14T07:46:27;8.07;;;4.95;;
12762;SDS011;6445;52.490;13.378;2023-06-14T07:48:52;9.88;;;5.13;;
12762;SDS011;6445;52.490;13.378;2023-06-14T07:51:17;9.75;;;5.57;;
12762;SDS011;6445;52.490;13.378;2023-06-14T07:53:43;7.32;;;5.32;;
12762;SDS011;6445;52.490;13.378;2023-06-14T07:56:08;8.55;;;5.13;;
12762;SDS011;6445;52.490;13.378;2023-06-14T07:58:33;11.45;;;5.45;;
12762;SDS011;6445;52.490;13.378;2023-06-14T08:00:59;12.45;;;5.93;;
12762;SDS011;6445;52.490;13.378;2023-06-14T08:03:25;9.00;;;5.10;;
12762;SDS011;6445;52.490;13.378;2023-06-14T08:05:50;10.77;;;5.35;;
12762;SDS011;6445;52.490;13.378;2023-06-14T08:08:15;7.13;;;4.82;;
12762;SDS011;6445;52.490;13.378;2023-06-14T08:10:41;8.48;;;5.03;;
12762;SDS011;6445;52.490;13.378;2023-06-14T08:13:06;9.15;;;4.60;;
12762;SDS011;6445;52.490;13.378;2023-06-14T08:15:32;13.57;;;5.70;;
12762;SDS011;6445;52.490;13.378;2023-06-14T08:17:57;7.37;;;4.77;;
12762;SDS011;6445;52.490;13.378;2023-06-14T08:20:24;10.57;;;4.95;;
12762;SDS011;6445;52.490;13.378;2023-06-14T08:22:50;14.88;;;4.97;;
12762;SDS011;6445;52.490;13.378;2023-06-14T08:25:20;12.82;;;4.72;;
12762;SDS011;6445;52.490;13.378;2023-06-14T08:27:45;6.43;;;4.90;;
12762;SDS011;6445;52.490;13.378;2023-06-14T08:30:10;9.77;;;4.75;;
12762;SDS011;6445;52.490;13.378;2023-06-14T08:32:36;9.20;;;5.25;;
12762;SDS011;6445;52.490;13.378;2023-06-14T08:35:01;9.13;;;4.57;;
12762;SDS011;6445;52.490;13.378;2023-06-14T08:37:27;8.60;;;4.60;;
12762;SDS011;6445;52.490;13.378;2023-06-14T08:39:52;10.13;;;4.38;;
12762;SDS011;6445;52.490;13.378;2023-06-14T08:42:18;5.93;;;4.40;;
12762;SDS011;6445;52.490;13.378;2023-06-14T08:44:45;11.30;;;4.60;;
12762;SDS011;6445;52.490;13.378;2023-06-14T08:47:11;10.73;;;4.40;;
12762;SDS011;6445;52.490;13.378;2023-06-14T08:49:36;9.80;;;4.18;;
12762;SDS011;6445;52.490;13.378;2023-06-14T08:52:03;5.55;;;4.20;;
12762;SDS011;6445;52.490;13.378;2023-06-14T08:54:32;8.90;;;4.10;;
12762;SDS011;6445;52.490;13.378;2023-06-14T08:57:01;4.78;;;3.67;;
12762;SDS011;6445;52.490;13.378;2023-06-14T08:59:29;8.50;;;3.85;;
12762;SDS011;6445;52.490;13.378;2023-06-14T09:01:56;5.30;;;3.47;;
12762;SDS011;6445;52.490;13.378;2023-06-14T09:04:22;4.95;;;3.30;;
12762;SDS011;6445;52.490;13.378;2023-06-14T09:06:47;7.65;;;3.60;;
12762;SDS011;6445;52.490;13.378;2023-06-14T09:09:20;10.85;;;3.70;;
12762;SDS011;6445;52.490;13.378;2023-06-14T09:11:46;5.78;;;4.03;;
12762;SDS011;6445;52.490;13.378;2023-06-14T09:14:11;4.15;;;3.42;;
12762;SDS011;6445;52.490;13.378;2023-06-14T09:16:36;5.82;;;4.25;;
12762;SDS011;6445;52.490;13.378;2023-06-14T09:19:02;7.57;;;4.30;;
12762;SDS011;6445;52.490;13.378;2023-06-14T09:21:27;6.40;;;4.03;;
12762;SDS011;6445;52.490;13.378;2023-06-14T09:23:52;5.13;;;4.00;;
12762;SDS011;6445;52.490;13.378;2023-06-14T09:26:19;5.95;;;3.95;;
12762;SDS011;6445;52.490;13.378;2023-06-14T09:28:45;8.68;;;4.10;;
12762;SDS011;6445;52.490;13.378;2023-06-14T09:31:12;9.43;;;4.10;;
12762;SDS011;6445;52.490;13.378;2023-06-14T09:33:38;5.50;;;3.65;;
12762;SDS011;6445;52.490;13.378;2023-06-14T09:36:10;9.77;;;4.68;;
12762;SDS011;6445;52.490;13.378;2023-06-14T09:38:39;10.07;;;4.07;;
12762;SDS011;6445;52.490;13.378;2023-06-14T09:41:05;13.15;;;4.00;;
12762;SDS011;6445;52.490;13.378;2023-06-14T09:43:31;10.52;;;4.13;;
12762;SDS011;6445;52.490;13.378;2023-06-14T09:45:58;5.15;;;3.50;;
12762;SDS011;6445;52.490;13.378;2023-06-14T09:48:25;10.05;;;4.68;;
12762;SDS011;6445;52.490;13.378;2023-06-14T09:50:50;10.38;;;4.70;;
12762;SDS011;6445;52.490;13.378;2023-06-14T09:53:17;4.85;;;4.10;;
12762;SDS011;6445;52.490;13.378;2023-06-14T09:55:47;5.40;;;4.20;;
12762;SDS011;6445;52.490;13.378;2023-06-14T09:58:15;13.32;;;4.30;;
12762;SDS011;6445;52.490;13.378;2023-06-14T10:00:41;14.13;;;3.90;;
12762;SDS011;6445;52.490;13.378;2023-06-14T10:03:13;7.25;;;3.90;;
12762;SDS011;6445;52.490;13.378;2023-06-14T10:05:42;9.30;;;4.32;;
12762;SDS011;6445;52.490;13.378;2023-06-14T10:08:10;8.35;;;3.75;;
12762;SDS011;6445;52.490;13.378;2023-06-14T10:10:41;6.45;;;3.97;;
12762;SDS011;6445;52.490;13.378;2023-06-14T10:13:07;10.82;;;4.07;;
12762;SDS011;6445;52.490;13.378;2023-06-14T10:15:35;7.38;;;4.30;;
12762;SDS011;6445;52.490;13.378;2023-06-14T10:18:35;8.43;;;4.40;;
12762;SDS011;6445;52.490;13.378;2023-06-14T10:21:41;8.20;;;4.07;;
12762;SDS011;6445;52.490;13.378;2023-06-14T10:24:15;7.60;;;4.38;;
12762;SDS011;6445;52.490;13.378;2023-06-14T10:26:56;9.85;;;4.13;;
12762;SDS011;6445;52.490;13.378;2023-06-14T10:29:23;7.32;;;4.05;;
12762;SDS011;6445;52.490;13.378;2023-06-14T10:31:48;10.32;;;4.35;;
12762;SDS011;6445;52.490;13.378;2023-06-14T10:34:21;5.93;;;4.10;;
12762;SDS011;6445;52.490;13.378;2023-06-14T10:37:00;6.57;;;3.80;;
12762;SDS011;6445;52.490;13.378;2023-06-14T10:39:27;7.03;;;4.18;;
12762;SDS011;6445;52.490;13.378;2023-06-14T10:41:53;8.75;;;4.80;;
12762;SDS011;6445;52.490;13.378;2023-06-14T10:46:45;10.60;;;4.17;;
12762;SDS011;6445;52.490;13.378;2023-06-14T10:49:11;6.03;;;3.83;;
12762;SDS011;6445;52.490;13.378;2023-06-14T10:51:41;10.45;;;4.07;;
12762;SDS011;6445;52.490;13.378;2023-06-14T10:54:11;11.50;;;4.00;;
12762;SDS011;6445;52.490;13.378;2023-06-14T10:56:47;13.52;;;4.60;;
12762;SDS011;6445;52.490;13.378;2023-06-14T10:59:13;4.85;;;4.00;;
12762;SDS011;6445;52.490;13.378;2023-06-14T11:05:13;10.35;;;4.20;;
12762;SDS011;6445;52.490;13.378;2023-06-14T11:10:37;10.18;;;4.30;;
12762;SDS011;6445;52.490;13.378;2023-06-14T11:13:03;5.13;;;3.70;;
12762;SDS011;6445;52.490;13.378;2023-06-14T11:15:33;7.22;;;4.60;;
12762;SDS011;6445;52.490;13.378;2023-06-14T11:18:00;7.40;;;4.15;;
12762;SDS011;6445;52.490;13.378;2023-06-14T11:20:27;7.13;;;4.05;;
12762;SDS011;6445;52.490;13.378;2023-06-14T11:22:54;8.60;;;4.38;;
12762;SDS011;6445;52.490;13.378;2023-06-14T11:25:20;7.95;;;4.22;;
12762;SDS011;6445;52.490;13.378;2023-06-14T11:27:45;8.55;;;4.35;;
12762;SDS011;6445;52.490;13.378;2023-06-14T11:30:11;8.73;;;4.07;;
12762;SDS011;6445;52.490;13.378;2023-06-14T11:32:38;7.55;;;3.90;;
12762;SDS011;6445;52.490;13.378;2023-06-14T11:35:04;8.75;;;4.10;;
12762;SDS011;6445;52.490;13.378;2023-06-14T11:37:30;7.25;;;3.78;;
12762;SDS011;6445;52.490;13.378;2023-06-14T11:39:56;11.20;;;3.85;;
12762;SDS011;6445;52.490;13.378;2023-06-14T11:42:22;12.27;;;4.65;;
12762;SDS011;6445;52.490;13.378;2023-06-14T11:44:49;5.90;;;3.67;;
12762;SDS011;6445;52.490;13.378;2023-06-14T11:47:14;5.95;;;4.00;;
12762;SDS011;6445;52.490;13.378;2023-06-14T11:49:40;8.15;;;3.75;;
12762;SDS011;6445;52.490;13.378;2023-06-14T11:52:05;7.10;;;4.10;;
12762;SDS011;6445;52.490;13.378;2023-06-14T11:54:31;11.45;;;4.13;;
12762;SDS011;6445;52.490;13.378;2023-06-14T11:56:57;8.65;;;3.90;;
12762;SDS011;6445;52.490;13.378;2023-06-14T11:59:23;10.80;;;4.40;;
12762;SDS011;6445;52.490;13.378;2023-06-14T12:01:49;6.22;;;3.75;;
12762;SDS011;6445;52.490;13.378;2023-06-14T12:04:14;7.03;;;3.75;;
12762;SDS011;6445;52.490;13.378;2023-06-14T12:06:48;6.30;;;4.00;;
12762;SDS011;6445;52.490;13.378;2023-06-14T12:09:14;11.63;;;4.50;;
12762;SDS011;6445;52.490;13.378;2023-06-14T12:11:42;10.13;;;3.90;;
12762;SDS011;6445;52.490;13.378;2023-06-14T12:14:08;9.27;;;3.83;;
12762;SDS011;6445;52.490;13.378;2023-06-14T12:16:34;8.63;;;3.80;;
12762;SDS011;6445;52.490;13.378;2023-06-14T12:19:12;9.10;;;4.30;;
12762;SDS011;6445;52.490;13.378;2023-06-14T12:21:41;11.10;;;4.53;;
12762;SDS011;6445;52.490;13.378;2023-06-14T12:24:09;9.82;;;4.10;;
12762;SDS011;6445;52.490;13.378;2023-06-14T12:26:40;6.63;;;3.38;;
12762;SDS011;6445;52.490;13.378;2023-06-14T12:29:06;8.27;;;4.00;;
12762;SDS011;6445;52.490;13.378;2023-06-14T12:31:35;7.45;;;3.88;;
12762;SDS011;6445;52.490;13.378;2023-06-14T12:34:00;7.35;;;3.80;;
12762;SDS011;6445;52.490;13.378;2023-06-14T12:36:26;9.00;;;4.72;;
12762;SDS011;6445;52.490;13.378;2023-06-14T12:38:51;8.20;;;4.47;;
12762;SDS011;6445;52.490;13.378;2023-06-14T12:41:20;11.63;;;4.20;;
12762;SDS011;6445;52.490;13.378;2023-06-14T12:43:49;7.65;;;4.13;;
12762;SDS011;6445;52.490;13.378;2023-06-14T12:46:14;9.80;;;4.22;;
12762;SDS011;6445;52.490;13.378;2023-06-14T12:48:39;8.38;;;4.50;;
12762;SDS011;6445;52.490;13.378;2023-06-14T12:51:05;6.45;;;3.63;;
12762;SDS011;6445;52.490;13.378;2023-06-14T12:53:30;5.78;;;3.20;;
12762;SDS011;6445;52.490;13.378;2023-06-14T12:55:55;4.10;;;3.47;;
12762;SDS011;6445;52.490;13.378;2023-06-14T12:58:21;7.90;;;3.38;;
12762;SDS011;6445;52.490;13.378;2023-06-14T13:00:46;10.73;;;4.10;;
12762;SDS011;6445;52.490;13.378;2023-06-14T13:03:12;9.75;;;3.63;;
12762;SDS011;6445;52.490;13.378;2023-06-14T13:05:37;4.43;;;3.10;;
12762;SDS011;6445;52.490;13.378;2023-06-14T13:08:05;9.23;;;3.67;;
12762;SDS011;6445;52.490;13.378;2023-06-14T13:10:31;6.90;;;3.85;;
12762;SDS011;6445;52.490;13.378;2023-06-14T13:12:56;5.85;;;3.45;;
12762;SDS011;6445;52.490;13.378;2023-06-14T13:15:23;5.65;;;3.60;;
12762;SDS011;6445;52.490;13.378;2023-06-14T13:17:48;5.63;;;3.90;;
12762;SDS011;6445;52.490;13.378;2023-06-14T13:20:13;8.43;;;3.50;;
12762;SDS011;6445;52.490;13.378;2023-06-14T13:22:39;9.30;;;4.25;;
12762;SDS011;6445;52.490;13.378;2023-06-14T13:25:04;11.00;;;3.85;;
12762;SDS011;6445;52.490;13.378;2023-06-14T13:27:31;6.97;;;3.65;;
12762;SDS011;6445;52.490;13.378;2023-06-14T13:29:56;4.85;;;3.60;;
12762;SDS011;6445;52.490;13.378;2023-06-14T13:32:21;9.68;;;3.50;;
12762;SDS011;6445;52.490;13.378;2023-06-14T13:34:47;7.68;;;3.50;;
12762;SDS011;6445;52.490;13.378;2023-06-14T13:37:13;6.85;;;3.70;;
12762;SDS011;6445;52.490;13.378;2023-06-14T13:39:38;10.82;;;3.55;;
12762;SDS011;6445;52.490;13.378;2023-06-14T13:42:04;7.97;;;3.75;;
12762;SDS011;6445;52.490;13.378;2023-06-14T13:44:29;8.27;;;3.67;;
12762;SDS011;6445;52.490;13.378;2023-06-14T13:46:55;6.80;;;3.58;;
12762;SDS011;6445;52.490;13.378;2023-06-14T13:49:20;6.50;;;3.92;;
12762;SDS011;6445;52.490;13.378;2023-06-14T13:51:45;7.47;;;3.58;;
12762;SDS011;6445;52.490;13.378;2023-06-14T13:54:12;6.60;;;3.53;;
12762;SDS011;6445;52.490;13.378;2023-06-14T13:56:38;7.95;;;3.72;;
12762;SDS011;6445;52.490;13.378;2023-06-14T13:59:03;5.80;;;4.00;;
12762;SDS011;6445;52.490;13.378;2023-06-14T14:01:29;7.43;;;3.83;;
12762;SDS011;6445;52.490;13.378;2023-06-14T14:03:54;8.95;;;3.72;;
12762;SDS011;6445;52.490;13.378;2023-06-14T14:06:19;11.52;;;4.25;;
12762;SDS011;6445;52.490;13.378;2023-06-14T14:08:45;4.80;;;3.58;;
12762;SDS011;6445;52.490;13.378;2023-06-14T14:11:11;7.60;;;3.70;;
12762;SDS011;6445;52.490;13.378;2023-06-14T14:13:37;4.85;;;3.20;;
12762;SDS011;6445;52.490;13.378;2023-06-14T14:16:03;5.55;;;3.55;;
12762;SDS011;6445;52.490;13.378;2023-06-14T14:18:29;8.82;;;3.55;;
12762;SDS011;6445;52.490;13.378;2023-06-14T14:20:54;8.43;;;3.65;;
12762;SDS011;6445;52.490;13.378;2023-06-14T14:23:19;6.18;;;2.95;;
12762;SDS011;6445;52.490;13.378;2023-06-14T14:25:45;6.95;;;3.33;;
12762;SDS011;6445;52.490;13.378;2023-06-14T14:28:11;6.13;;;3.40;;
12762;SDS011;6445;52.490;13.378;2023-06-14T14:30:36;4.97;;;3.47;;
12762;SDS011;6445;52.490;13.378;2023-06-14T14:33:04;6.88;;;3.50;;
12762;SDS011;6445;52.490;13.378;2023-06-14T14:35:30;7.38;;;3.60;;
12762;SDS011;6445;52.490;13.378;2023-06-14T14:37:55;5.80;;;3.80;;
12762;SDS011;6445;52.490;13.378;2023-06-14T14:40:21;7.05;;;3.83;;
12762;SDS011;6445;52.490;13.378;2023-06-14T14:42:46;8.25;;;3.50;;
12762;SDS011;6445;52.490;13.378;2023-06-14T14:45:11;8.32;;;4.00;;
12762;SDS011;6445;52.490;13.378;2023-06-14T14:47:37;5.85;;;3.83;;
12762;SDS011;6445;52.490;13.378;2023-06-14T14:50:02;9.23;;;3.63;;